sensor_id;sensor_type;location;lat;lon;timestamp;P1;durP1;ratioP1;P2;durP2;ratioP2
9106;SDS011;4589;48.690;8.952;2023-11-19T00:00:37;0.80;;;0.60;;
9106;SDS011;4589;48.690;8.952;2023-11-19T00:03:03;0.80;;;0.60;;
9106;SDS011;4589;48.690;8.952;2023-11-19T00:05:29;1.37;;;1.10;;
9106;SDS011;4589;48.690;8.952;2023-11-19T00:07:54;0.80;;;0.60;;
9106;SDS011;4589;48.690;8.952;2023-11-19T00:10:20;0.80;;;0.60;;
9106;SDS011;4589;48.690;8.952;2023-11-19T00:12:47;0.80;;;0.60;;
9106;SDS011;4589;48.690;8.952;2023-11-19T00:15:13;0.80;;;0.60;;
9106;SDS011;4589;48.690;8.952;2023-11-19T00:17:39;0.80;;;0.60;;
9106;SDS011;4589;48.690;8.952;2023-11-19T00:20:09;0.80;;;0.60;;
9106;SDS011;4589;48.690;8.952;2023-11-19T00:22:39;0.80;;;0.60;;
9106;SDS011;4589;48.690;8.952;2023-11-19T00:25:05;0.80;;;0.60;;
9106;SDS011;4589;48.690;8.952;2023-11-19T00:27:31;0.80;;;0.60;;
9106;SDS011;4589;48.690;8.952;2023-11-19T00:29:57;0.80;;;0.60;;
9106;SDS011;4589;48.690;8.952;2023-11-19T00:32:23;0.80;;;0.60;;
9106;SDS011;4589;48.690;8.952;2023-11-19T00:34:49;0.80;;;0.60;;
9106;SDS011;4589;48.690;8.952;2023-11-19T00:37:15;0.80;;;0.60;;
9106;SDS011;4589;48.690;8.952;2023-11-19T00:39:41;0.80;;;0.60;;
9106;SDS011;4589;48.690;8.952;2023-11-19T00:42:08;0.80;;;0.60;;
9106;SDS011;4589;48.690;8.952;2023-11-19T00:44:35;0.80;;;0.60;;
9106;SDS011;4589;48.690;8.952;2023-11-19T00:47:01;0.80;;;0.60;;
9106;SDS011;4589;48.690;8.952;2023-11-19T00:49:27;0.80;;;0.60;;
9106;SDS011;4589;48.690;8.952;2023-11-19T00:51:52;0.80;;;0.60;;
9106;SDS011;4589;48.690;8.952;2023-11-19T00:54:18;0.80;;;0.60;;
9106;SDS011;4589;48.690;8.952;2023-11-19T00:56:44;0.80;;;0.60;;
9106;SDS011;4589;48.690;8.952;2023-11-19T00:59:10;0.80;;;0.60;;
9106;SDS011;4589;48.690;8.952;2023-11-19T01:01:36;0.80;;;0.60;;
9106;SDS011;4589;48.690;8.952;2023-11-19T01:04:02;0.90;;;0.60;;
9106;SDS011;4589;48.690;8.952;2023-11-19T01:06:28;2.10;;;1.27;;
9106;SDS011;4589;48.690;8.952;2023-11-19T01:08:55;0.90;;;0.60;;
9106;SDS011;4589;48.690;8.952;2023-11-19T01:11:22;0.80;;;0.60;;
9106;SDS011;4589;48.690;8.952;2023-11-19T01:13:48;0.80;;;0.60;;
9106;SDS011;4589;48.690;8.952;2023-11-19T01:16:14;0.90;;;0.60;;
9106;SDS011;4589;48.690;8.952;2023-11-19T01:18:40;0.90;;;0.70;;
9106;SDS011;4589;48.690;8.952;2023-11-19T01:21:05;0.90;;;0.60;;
9106;SDS011;4589;48.690;8.952;2023-11-19T01:23:31;0.80;;;0.60;;
9106;SDS011;4589;48.690;8.952;2023-11-19T01:26:00;0.90;;;0.60;;
9106;SDS011;4589;48.690;8.952;2023-11-19T01:28:25;0.83;;;0.60;;
9106;SDS011;4589;48.690;8.952;2023-11-19T01:30:51;0.80;;;0.60;;
9106;SDS011;4589;48.690;8.952;2023-11-19T01:33:17;0.90;;;0.60;;
9106;SDS011;4589;48.690;8.952;2023-11-19T01:35:43;0.80;;;0.67;;
9106;SDS011;4589;48.690;8.952;2023-11-19T01:38:09;0.90;;;0.80;;
9106;SDS011;4589;48.690;8.952;2023-11-19T01:40:35;0.90;;;0.60;;
9106;SDS011;4589;48.690;8.952;2023-11-19T01:43:02;0.83;;;0.60;;
9106;SDS011;4589;48.690;8.952;2023-11-19T01:45:29;0.83;;;0.60;;
9106;SDS011;4589;48.690;8.952;2023-11-19T01:47:56;0.87;;;0.60;;
9106;SDS011;4589;48.690;8.952;2023-11-19T01:50:22;0.90;;;0.60;;
9106;SDS011;4589;48.690;8.952;2023-11-19T01:52:50;0.90;;;0.60;;
9106;SDS011;4589;48.690;8.952;2023-11-19T01:55:19;0.90;;;0.60;;
9106;SDS011;4589;48.690;8.952;2023-11-19T01:57:46;0.90;;;0.60;;
9106;SDS011;4589;48.690;8.952;2023-11-19T02:00:13;0.87;;;0.60;;
9106;SDS011;4589;48.690;8.952;2023-11-19T02:02:42;1.73;;;1.63;;
9106;SDS011;4589;48.690;8.952;2023-11-19T02:05:10;0.90;;;0.60;;
9106;SDS011;4589;48.690;8.952;2023-11-19T02:07:36;0.87;;;0.60;;
9106;SDS011;4589;48.690;8.952;2023-11-19T02:10:02;0.90;;;0.60;;
9106;SDS011;4589;48.690;8.952;2023-11-19T02:12:30;0.80;;;0.60;;
9106;SDS011;4589;48.690;8.952;2023-11-19T02:14:58;0.90;;;0.60;;
9106;SDS011;4589;48.690;8.952;2023-11-19T02:17:28;0.90;;;0.60;;
9106;SDS011;4589;48.690;8.952;2023-11-19T02:19:56;0.90;;;0.60;;
9106;SDS011;4589;48.690;8.952;2023-11-19T02:22:23;0.90;;;0.60;;
9106;SDS011;4589;48.690;8.952;2023-11-19T02:24:51;0.90;;;0.60;;
9106;SDS011;4589;48.690;8.952;2023-11-19T02:30:10;0.90;;;0.60;;
9106;SDS011;4589;48.690;8.952;2023-11-19T02:32:36;0.90;;;0.60;;
9106;SDS011;4589;48.690;8.952;2023-11-19T02:35:05;0.90;;;0.60;;
9106;SDS011;4589;48.690;8.952;2023-11-19T02:37:33;0.90;;;0.60;;
9106;SDS011;4589;48.690;8.952;2023-11-19T02:39:58;0.90;;;0.60;;
9106;SDS011;4589;48.690;8.952;2023-11-19T02:42:34;0.90;;;0.60;;
9106;SDS011;4589;48.690;8.952;2023-11-19T02:45:00;0.90;;;0.60;;
9106;SDS011;4589;48.690;8.952;2023-11-19T02:47:27;0.90;;;0.60;;
9106;SDS011;4589;48.690;8.952;2023-11-19T02:49:55;0.90;;;0.60;;
9106;SDS011;4589;48.690;8.952;2023-11-19T02:52:21;0.90;;;0.60;;
9106;SDS011;4589;48.690;8.952;2023-11-19T02:54:46;0.90;;;0.60;;
9106;SDS011;4589;48.690;8.952;2023-11-19T02:57:12;0.90;;;0.60;;
9106;SDS011;4589;48.690;8.952;2023-11-19T02:59:38;0.90;;;0.60;;
9106;SDS011;4589;48.690;8.952;2023-11-19T03:02:06;0.90;;;0.60;;
9106;SDS011;4589;48.690;8.952;2023-11-19T03:04:36;0.90;;;0.60;;
9106;SDS011;4589;48.690;8.952;2023-11-19T03:07:04;0.90;;;0.60;;
9106;SDS011;4589;48.690;8.952;2023-11-19T03:09:30;0.90;;;0.60;;
9106;SDS011;4589;48.690;8.952;2023-11-19T03:11:56;0.90;;;0.60;;
9106;SDS011;4589;48.690;8.952;2023-11-19T03:14:22;0.90;;;0.60;;
9106;SDS011;4589;48.690;8.952;2023-11-19T03:16:48;0.87;;;0.60;;
9106;SDS011;4589;48.690;8.952;2023-11-19T03:19:14;0.90;;;0.60;;
9106;SDS011;4589;48.690;8.952;2023-11-19T03:21:40;0.90;;;0.60;;
9106;SDS011;4589;48.690;8.952;2023-11-19T03:24:05;0.90;;;0.60;;
9106;SDS011;4589;48.690;8.952;2023-11-19T03:26:33;0.90;;;0.60;;
9106;SDS011;4589;48.690;8.952;2023-11-19T03:28:59;0.90;;;0.60;;
9106;SDS011;4589;48.690;8.952;2023-11-19T03:31:25;0.90;;;0.60;;
9106;SDS011;4589;48.690;8.952;2023-11-19T03:33:51;0.90;;;0.60;;
9106;SDS011;4589;48.690;8.952;2023-11-19T03:36:17;0.90;;;0.60;;
9106;SDS011;4589;48.690;8.952;2023-11-19T03:38:43;0.90;;;0.60;;
9106;SDS011;4589;48.690;8.952;2023-11-19T03:41:18;0.90;;;0.60;;
9106;SDS011;4589;48.690;8.952;2023-11-19T03:43:44;0.90;;;0.60;;
9106;SDS011;4589;48.690;8.952;2023-11-19T03:46:19;0.90;;;0.60;;
9106;SDS011;4589;48.690;8.952;2023-11-19T03:48:48;0.90;;;0.60;;
9106;SDS011;4589;48.690;8.952;2023-11-19T03:51:14;0.90;;;0.60;;
9106;SDS011;4589;48.690;8.952;2023-11-19T03:53:44;0.90;;;0.60;;
9106;SDS011;4589;48.690;8.952;2023-11-19T03:56:10;0.90;;;0.60;;
9106;SDS011;4589;48.690;8.952;2023-11-19T03:58:36;0.90;;;0.60;;
9106;SDS011;4589;48.690;8.952;2023-11-19T04:01:03;0.90;;;0.60;;
9106;SDS011;4589;48.690;8.952;2023-11-19T04:03:29;0.90;;;0.60;;
9106;SDS011;4589;48.690;8.952;2023-11-19T04:05:54;0.90;;;0.60;;
9106;SDS011;4589;48.690;8.952;2023-11-19T04:08:21;0.90;;;0.60;;
9106;SDS011;4589;48.690;8.952;2023-11-19T04:10:47;0.90;;;0.60;;
9106;SDS011;4589;48.690;8.952;2023-11-19T04:13:13;0.90;;;0.60;;
9106;SDS011;4589;48.690;8.952;2023-11-19T04:15:39;0.90;;;0.60;;
9106;SDS011;4589;48.690;8.952;2023-11-19T04:18:04;0.90;;;0.60;;
9106;SDS011;4589;48.690;8.952;2023-11-19T04:20:30;0.90;;;0.60;;
9106;SDS011;4589;48.690;8.952;2023-11-19T04:22:56;0.90;;;0.60;;
9106;SDS011;4589;48.690;8.952;2023-11-19T04:25:22;0.90;;;0.60;;
9106;SDS011;4589;48.690;8.952;2023-11-19T04:27:49;0.90;;;0.60;;
9106;SDS011;4589;48.690;8.952;2023-11-19T04:30:15;0.90;;;0.60;;
9106;SDS011;4589;48.690;8.952;2023-11-19T04:32:40;0.90;;;0.60;;
9106;SDS011;4589;48.690;8.952;2023-11-19T04:35:06;0.90;;;0.60;;
9106;SDS011;4589;48.690;8.952;2023-11-19T04:37:32;0.90;;;0.60;;
9106;SDS011;4589;48.690;8.952;2023-11-19T04:39:59;0.90;;;0.60;;
9106;SDS011;4589;48.690;8.952;2023-11-19T04:42:25;0.90;;;0.60;;
9106;SDS011;4589;48.690;8.952;2023-11-19T04:44:50;0.90;;;0.60;;
9106;SDS011;4589;48.690;8.952;2023-11-19T04:47:16;0.90;;;0.60;;
9106;SDS011;4589;48.690;8.952;2023-11-19T04:49:42;0.90;;;0.60;;
9106;SDS011;4589;48.690;8.952;2023-11-19T04:52:08;0.90;;;0.60;;
9106;SDS011;4589;48.690;8.952;2023-11-19T04:54:34;0.90;;;0.60;;
9106;SDS011;4589;48.690;8.952;2023-11-19T04:57:00;0.90;;;0.60;;
9106;SDS011;4589;48.690;8.952;2023-11-19T04:59:25;0.90;;;0.60;;
9106;SDS011;4589;48.690;8.952;2023-11-19T05:01:52;0.90;;;0.60;;
9106;SDS011;4589;48.690;8.952;2023-11-19T05:04:18;0.90;;;0.60;;
9106;SDS011;4589;48.690;8.952;2023-11-19T05:06:43;0.90;;;0.60;;
9106;SDS011;4589;48.690;8.952;2023-11-19T05:09:10;0.90;;;0.60;;
9106;SDS011;4589;48.690;8.952;2023-11-19T05:11:38;0.90;;;0.60;;
9106;SDS011;4589;48.690;8.952;2023-11-19T05:14:04;0.90;;;0.60;;
9106;SDS011;4589;48.690;8.952;2023-11-19T05:16:30;0.90;;;0.60;;
9106;SDS011;4589;48.690;8.952;2023-11-19T05:18:56;0.90;;;0.60;;
9106;SDS011;4589;48.690;8.952;2023-11-19T05:21:22;0.90;;;0.60;;
9106;SDS011;4589;48.690;8.952;2023-11-19T05:23:49;0.90;;;0.60;;
9106;SDS011;4589;48.690;8.952;2023-11-19T05:26:18;0.90;;;0.60;;
9106;SDS011;4589;48.690;8.952;2023-11-19T05:28:44;0.90;;;0.60;;
9106;SDS011;4589;48.690;8.952;2023-11-19T05:31:10;0.90;;;0.60;;
9106;SDS011;4589;48.690;8.952;2023-11-19T05:33:36;0.90;;;0.60;;
9106;SDS011;4589;48.690;8.952;2023-11-19T05:36:02;0.90;;;0.60;;
9106;SDS011;4589;48.690;8.952;2023-11-19T05:38:29;0.90;;;0.60;;
9106;SDS011;4589;48.690;8.952;2023-11-19T05:40:55;0.90;;;0.60;;
9106;SDS011;4589;48.690;8.952;2023-11-19T05:43:21;0.90;;;0.60;;
9106;SDS011;4589;48.690;8.952;2023-11-19T05:45:47;0.90;;;0.60;;
9106;SDS011;4589;48.690;8.952;2023-11-19T05:48:12;0.90;;;0.60;;
9106;SDS011;4589;48.690;8.952;2023-11-19T05:50:38;0.90;;;0.60;;
9106;SDS011;4589;48.690;8.952;2023-11-19T05:53:04;0.90;;;0.60;;
9106;SDS011;4589;48.690;8.952;2023-11-19T05:55:35;0.90;;;0.60;;
9106;SDS011;4589;48.690;8.952;2023-11-19T05:58:02;0.90;;;0.60;;
9106;SDS011;4589;48.690;8.952;2023-11-19T06:00:29;0.90;;;0.60;;
9106;SDS011;4589;48.690;8.952;2023-11-19T06:02:55;0.90;;;0.60;;
9106;SDS011;4589;48.690;8.952;2023-11-19T06:05:21;0.90;;;0.60;;
9106;SDS011;4589;48.690;8.952;2023-11-19T06:07:47;0.90;;;0.60;;
9106;SDS011;4589;48.690;8.952;2023-11-19T06:10:12;0.90;;;0.60;;
9106;SDS011;4589;48.690;8.952;2023-11-19T06:12:41;0.90;;;0.60;;
9106;SDS011;4589;48.690;8.952;2023-11-19T06:15:07;0.90;;;0.60;;
9106;SDS011;4589;48.690;8.952;2023-11-19T06:17:33;0.90;;;0.60;;
9106;SDS011;4589;48.690;8.952;2023-11-19T06:19:59;0.90;;;0.60;;
9106;SDS011;4589;48.690;8.952;2023-11-19T06:22:25;0.90;;;0.60;;
9106;SDS011;4589;48.690;8.952;2023-11-19T06:24:51;0.90;;;0.67;;
9106;SDS011;4589;48.690;8.952;2023-11-19T06:27:17;0.90;;;0.60;;
9106;SDS011;4589;48.690;8.952;2023-11-19T06:29:43;0.90;;;0.60;;
9106;SDS011;4589;48.690;8.952;2023-11-19T06:32:09;0.83;;;0.60;;
9106;SDS011;4589;48.690;8.952;2023-11-19T06:34:35;0.93;;;0.83;;
9106;SDS011;4589;48.690;8.952;2023-11-19T06:37:01;0.90;;;0.60;;
9106;SDS011;4589;48.690;8.952;2023-11-19T06:39:29;0.90;;;0.60;;
9106;SDS011;4589;48.690;8.952;2023-11-19T06:41:54;1.00;;;0.90;;
9106;SDS011;4589;48.690;8.952;2023-11-19T06:44:20;0.90;;;0.60;;
9106;SDS011;4589;48.690;8.952;2023-11-19T06:46:46;0.80;;;0.60;;
9106;SDS011;4589;48.690;8.952;2023-11-19T06:49:13;0.80;;;0.60;;
9106;SDS011;4589;48.690;8.952;2023-11-19T06:51:42;0.80;;;0.60;;
9106;SDS011;4589;48.690;8.952;2023-11-19T06:54:08;0.80;;;0.60;;
9106;SDS011;4589;48.690;8.952;2023-11-19T06:56:34;0.80;;;0.60;;
9106;SDS011;4589;48.690;8.952;2023-11-19T06:58:59;0.80;;;0.60;;
9106;SDS011;4589;48.690;8.952;2023-11-19T07:01:25;0.80;;;0.60;;
9106;SDS011;4589;48.690;8.952;2023-11-19T07:03:52;0.80;;;0.60;;
9106;SDS011;4589;48.690;8.952;2023-11-19T07:06:17;0.80;;;0.60;;
9106;SDS011;4589;48.690;8.952;2023-11-19T07:08:43;0.90;;;0.60;;
9106;SDS011;4589;48.690;8.952;2023-11-19T07:11:12;0.80;;;0.60;;
9106;SDS011;4589;48.690;8.952;2023-11-19T07:13:39;0.80;;;0.60;;
9106;SDS011;4589;48.690;8.952;2023-11-19T07:16:06;0.80;;;0.60;;
9106;SDS011;4589;48.690;8.952;2023-11-19T07:18:34;0.80;;;0.60;;
9106;SDS011;4589;48.690;8.952;2023-11-19T07:21:01;0.80;;;0.60;;
9106;SDS011;4589;48.690;8.952;2023-11-19T07:23:28;0.80;;;0.60;;
9106;SDS011;4589;48.690;8.952;2023-11-19T07:25:54;0.80;;;0.60;;
9106;SDS011;4589;48.690;8.952;2023-11-19T07:28:20;0.80;;;0.60;;
9106;SDS011;4589;48.690;8.952;2023-11-19T07:30:46;0.90;;;0.60;;
9106;SDS011;4589;48.690;8.952;2023-11-19T07:33:12;0.87;;;0.60;;
9106;SDS011;4589;48.690;8.952;2023-11-19T07:35:38;0.80;;;0.60;;
9106;SDS011;4589;48.690;8.952;2023-11-19T07:38:07;0.80;;;0.60;;
9106;SDS011;4589;48.690;8.952;2023-11-19T07:40:33;1.73;;;1.63;;
9106;SDS011;4589;48.690;8.952;2023-11-19T07:42:59;0.80;;;0.60;;
9106;SDS011;4589;48.690;8.952;2023-11-19T07:45:24;1.00;;;0.80;;
9106;SDS011;4589;48.690;8.952;2023-11-19T07:47:52;0.80;;;0.60;;
9106;SDS011;4589;48.690;8.952;2023-11-19T07:50:17;0.87;;;0.60;;
9106;SDS011;4589;48.690;8.952;2023-11-19T07:52:45;0.80;;;0.60;;
9106;SDS011;4589;48.690;8.952;2023-11-19T07:55:11;0.80;;;0.60;;
9106;SDS011;4589;48.690;8.952;2023-11-19T07:57:37;0.80;;;0.60;;
9106;SDS011;4589;48.690;8.952;2023-11-19T08:00:03;0.87;;;0.60;;
9106;SDS011;4589;48.690;8.952;2023-11-19T08:02:29;0.90;;;0.60;;
9106;SDS011;4589;48.690;8.952;2023-11-19T08:04:54;0.80;;;0.60;;
9106;SDS011;4589;48.690;8.952;2023-11-19T08:07:20;0.90;;;0.60;;
9106;SDS011;4589;48.690;8.952;2023-11-19T08:09:47;0.90;;;0.60;;
9106;SDS011;4589;48.690;8.952;2023-11-19T08:12:12;0.90;;;0.60;;
9106;SDS011;4589;48.690;8.952;2023-11-19T08:14:40;0.80;;;0.60;;
9106;SDS011;4589;48.690;8.952;2023-11-19T08:17:06;0.90;;;0.60;;
9106;SDS011;4589;48.690;8.952;2023-11-19T08:19:32;0.90;;;0.60;;
9106;SDS011;4589;48.690;8.952;2023-11-19T08:21:58;0.80;;;0.60;;
9106;SDS011;4589;48.690;8.952;2023-11-19T08:24:23;0.90;;;0.60;;
9106;SDS011;4589;48.690;8.952;2023-11-19T08:26:49;0.80;;;0.60;;
9106;SDS011;4589;48.690;8.952;2023-11-19T08:29:14;0.80;;;0.60;;
9106;SDS011;4589;48.690;8.952;2023-11-19T08:31:40;0.90;;;0.60;;
9106;SDS011;4589;48.690;8.952;2023-11-19T08:34:06;0.90;;;0.60;;
9106;SDS011;4589;48.690;8.952;2023-11-19T08:36:34;0.90;;;0.60;;
9106;SDS011;4589;48.690;8.952;2023-11-19T08:38:59;0.90;;;0.60;;
9106;SDS011;4589;48.690;8.952;2023-11-19T08:41:25;0.90;;;0.60;;
9106;SDS011;4589;48.690;8.952;2023-11-19T08:43:52;0.90;;;0.60;;
9106;SDS011;4589;48.690;8.952;2023-11-19T08:46:18;0.90;;;0.60;;
9106;SDS011;4589;48.690;8.952;2023-11-19T08:48:44;0.90;;;0.60;;
9106;SDS011;4589;48.690;8.952;2023-11-19T08:51:11;0.90;;;0.60;;
9106;SDS011;4589;48.690;8.952;2023-11-19T08:53:37;0.90;;;0.60;;
9106;SDS011;4589;48.690;8.952;2023-11-19T08:56:02;0.90;;;0.60;;
9106;SDS011;4589;48.690;8.952;2023-11-19T08:58:28;0.90;;;0.60;;
9106;SDS011;4589;48.690;8.952;2023-11-19T09:00:54;0.90;;;0.60;;
9106;SDS011;4589;48.690;8.952;2023-11-19T09:03:20;0.90;;;0.60;;
9106;SDS011;4589;48.690;8.952;2023-11-19T09:05:46;0.90;;;0.60;;
9106;SDS011;4589;48.690;8.952;2023-11-19T09:08:12;1.57;;;1.47;;
9106;SDS011;4589;48.690;8.952;2023-11-19T09:10:38;0.90;;;0.60;;
9106;SDS011;4589;48.690;8.952;2023-11-19T09:13:03;0.90;;;0.60;;
9106;SDS011;4589;48.690;8.952;2023-11-19T09:15:29;0.90;;;0.60;;
9106;SDS011;4589;48.690;8.952;2023-11-19T09:17:55;0.90;;;0.60;;
9106;SDS011;4589;48.690;8.952;2023-11-19T09:20:21;0.90;;;0.60;;
9106;SDS011;4589;48.690;8.952;2023-11-19T09:22:46;0.90;;;0.60;;
9106;SDS011;4589;48.690;8.952;2023-11-19T09:25:12;0.90;;;0.60;;
9106;SDS011;4589;48.690;8.952;2023-11-19T09:27:41;0.90;;;0.60;;
9106;SDS011;4589;48.690;8.952;2023-11-19T09:30:08;0.90;;;0.60;;
9106;SDS011;4589;48.690;8.952;2023-11-19T09:32:34;0.90;;;0.60;;
9106;SDS011;4589;48.690;8.952;2023-11-19T09:34:59;0.90;;;0.60;;
9106;SDS011;4589;48.690;8.952;2023-11-19T09:37:25;0.90;;;0.60;;
9106;SDS011;4589;48.690;8.952;2023-11-19T09:39:51;0.90;;;0.60;;
9106;SDS011;4589;48.690;8.952;2023-11-19T09:42:18;0.90;;;0.60;;
9106;SDS011;4589;48.690;8.952;2023-11-19T09:44:44;0.90;;;0.60;;
9106;SDS011;4589;48.690;8.952;2023-11-19T09:47:12;0.90;;;0.60;;
9106;SDS011;4589;48.690;8.952;2023-11-19T09:49:39;0.90;;;0.60;;
9106;SDS011;4589;48.690;8.952;2023-11-19T09:52:05;0.90;;;0.60;;
9106;SDS011;4589;48.690;8.952;2023-11-19T09:54:30;0.90;;;0.60;;
9106;SDS011;4589;48.690;8.952;2023-11-19T09:56:57;0.90;;;0.60;;
9106;SDS011;4589;48.690;8.952;2023-11-19T09:59:27;0.90;;;0.60;;
9106;SDS011;4589;48.690;8.952;2023-11-19T10:01:54;0.90;;;0.70;;
9106;SDS011;4589;48.690;8.952;2023-11-19T10:04:21;0.90;;;0.60;;
9106;SDS011;4589;48.690;8.952;2023-11-19T10:06:47;0.90;;;0.60;;
9106;SDS011;4589;48.690;8.952;2023-11-19T10:09:13;0.90;;;0.60;;
9106;SDS011;4589;48.690;8.952;2023-11-19T10:11:40;0.90;;;0.60;;
9106;SDS011;4589;48.690;8.952;2023-11-19T10:14:05;1.13;;;0.80;;
9106;SDS011;4589;48.690;8.952;2023-11-19T10:16:31;1.87;;;1.03;;
9106;SDS011;4589;48.690;8.952;2023-11-19T10:18:59;1.37;;;1.00;;
9106;SDS011;4589;48.690;8.952;2023-11-19T10:21:25;1.50;;;0.80;;
9106;SDS011;4589;48.690;8.952;2023-11-19T10:23:53;1.93;;;0.90;;
9106;SDS011;4589;48.690;8.952;2023-11-19T10:26:22;1.93;;;0.80;;
9106;SDS011;4589;48.690;8.952;2023-11-19T10:28:48;3.83;;;0.87;;
9106;SDS011;4589;48.690;8.952;2023-11-19T10:31:17;1.07;;;0.80;;
9106;SDS011;4589;48.690;8.952;2023-11-19T10:33:45;1.13;;;0.90;;
9106;SDS011;4589;48.690;8.952;2023-11-19T10:36:11;2.10;;;0.93;;
9106;SDS011;4589;48.690;8.952;2023-11-19T10:38:37;1.20;;;0.80;;
9106;SDS011;4589;48.690;8.952;2023-11-19T10:41:04;1.00;;;0.70;;
9106;SDS011;4589;48.690;8.952;2023-11-19T10:43:30;1.00;;;0.70;;
9106;SDS011;4589;48.690;8.952;2023-11-19T10:46:09;1.43;;;0.87;;
9106;SDS011;4589;48.690;8.952;2023-11-19T10:48:38;1.20;;;0.90;;
9106;SDS011;4589;48.690;8.952;2023-11-19T10:51:05;1.20;;;0.87;;
9106;SDS011;4589;48.690;8.952;2023-11-19T10:53:33;1.30;;;0.90;;
9106;SDS011;4589;48.690;8.952;2023-11-19T10:56:02;2.53;;;1.00;;
9106;SDS011;4589;48.690;8.952;2023-11-19T10:58:32;1.23;;;1.10;;
9106;SDS011;4589;48.690;8.952;2023-11-19T11:01:01;4.23;;;1.70;;
9106;SDS011;4589;48.690;8.952;2023-11-19T11:03:29;1.27;;;0.80;;
9106;SDS011;4589;48.690;8.952;2023-11-19T11:06:04;2.50;;;1.00;;
9106;SDS011;4589;48.690;8.952;2023-11-19T11:08:30;1.10;;;0.97;;
9106;SDS011;4589;48.690;8.952;2023-11-19T11:10:56;5.17;;;1.17;;
9106;SDS011;4589;48.690;8.952;2023-11-19T11:13:26;2.77;;;1.80;;
9106;SDS011;4589;48.690;8.952;2023-11-19T11:15:53;1.10;;;0.83;;
9106;SDS011;4589;48.690;8.952;2023-11-19T11:18:21;1.97;;;1.23;;
9106;SDS011;4589;48.690;8.952;2023-11-19T11:20:47;1.77;;;1.20;;
9106;SDS011;4589;48.690;8.952;2023-11-19T11:36:48;4.30;;;1.43;;
9106;SDS011;4589;48.690;8.952;2023-11-19T11:39:35;1.00;;;0.90;;
9106;SDS011;4589;48.690;8.952;2023-11-19T11:42:30;1.20;;;1.00;;
9106;SDS011;4589;48.690;8.952;2023-11-19T11:50:09;6.90;;;1.20;;
9106;SDS011;4589;48.690;8.952;2023-11-19T11:55:26;1.20;;;0.90;;
9106;SDS011;4589;48.690;8.952;2023-11-19T11:57:53;1.37;;;0.83;;
9106;SDS011;4589;48.690;8.952;2023-11-19T12:00:26;1.70;;;1.10;;
9106;SDS011;4589;48.690;8.952;2023-11-19T12:02:56;1.27;;;0.90;;
9106;SDS011;4589;48.690;8.952;2023-11-19T12:05:23;1.30;;;0.80;;
9106;SDS011;4589;48.690;8.952;2023-11-19T12:07:56;1.20;;;0.90;;
9106;SDS011;4589;48.690;8.952;2023-11-19T12:10:34;1.47;;;1.00;;
9106;SDS011;4589;48.690;8.952;2023-11-19T12:13:04;1.93;;;1.00;;
9106;SDS011;4589;48.690;8.952;2023-11-19T12:15:33;3.20;;;2.33;;
9106;SDS011;4589;48.690;8.952;2023-11-19T12:18:29;0.90;;;0.70;;
9106;SDS011;4589;48.690;8.952;2023-11-19T12:20:59;2.03;;;1.20;;
9106;SDS011;4589;48.690;8.952;2023-11-19T12:23:28;1.27;;;0.80;;
9106;SDS011;4589;48.690;8.952;2023-11-19T12:25:54;2.77;;;1.13;;
9106;SDS011;4589;48.690;8.952;2023-11-19T12:28:21;2.43;;;0.80;;
9106;SDS011;4589;48.690;8.952;2023-11-19T12:30:49;1.77;;;1.10;;
9106;SDS011;4589;48.690;8.952;2023-11-19T12:33:14;4.60;;;1.17;;
9106;SDS011;4589;48.690;8.952;2023-11-19T12:35:41;2.70;;;1.10;;
9106;SDS011;4589;48.690;8.952;2023-11-19T12:38:18;4.00;;;1.37;;
9106;SDS011;4589;48.690;8.952;2023-11-19T12:40:45;1.40;;;1.10;;
9106;SDS011;4589;48.690;8.952;2023-11-19T12:43:11;1.60;;;1.10;;
9106;SDS011;4589;48.690;8.952;2023-11-19T12:45:47;1.27;;;1.00;;
9106;SDS011;4589;48.690;8.952;2023-11-19T12:48:13;1.30;;;0.93;;
9106;SDS011;4589;48.690;8.952;2023-11-19T12:50:51;1.77;;;0.90;;
9106;SDS011;4589;48.690;8.952;2023-11-19T12:53:21;1.10;;;0.80;;
9106;SDS011;4589;48.690;8.952;2023-11-19T12:55:48;2.70;;;1.10;;
9106;SDS011;4589;48.690;8.952;2023-11-19T12:58:33;1.30;;;1.00;;
9106;SDS011;4589;48.690;8.952;2023-11-19T13:03:30;1.10;;;1.00;;
9106;SDS011;4589;48.690;8.952;2023-11-19T13:06:06;2.57;;;1.00;;
9106;SDS011;4589;48.690;8.952;2023-11-19T13:08:40;1.20;;;0.90;;
9106;SDS011;4589;48.690;8.952;2023-11-19T13:11:06;4.90;;;1.47;;
9106;SDS011;4589;48.690;8.952;2023-11-19T13:13:49;2.43;;;1.30;;
9106;SDS011;4589;48.690;8.952;2023-11-19T13:16:22;1.10;;;0.90;;
9106;SDS011;4589;48.690;8.952;2023-11-19T13:18:48;1.03;;;0.87;;
9106;SDS011;4589;48.690;8.952;2023-11-19T13:21:14;3.37;;;0.83;;
9106;SDS011;4589;48.690;8.952;2023-11-19T13:23:40;3.53;;;1.47;;
9106;SDS011;4589;48.690;8.952;2023-11-19T13:26:05;1.90;;;1.00;;
9106;SDS011;4589;48.690;8.952;2023-11-19T13:28:31;1.37;;;1.10;;
9106;SDS011;4589;48.690;8.952;2023-11-19T13:30:57;1.70;;;1.07;;
9106;SDS011;4589;48.690;8.952;2023-11-19T13:33:23;2.23;;;1.00;;
9106;SDS011;4589;48.690;8.952;2023-11-19T13:35:48;2.17;;;1.00;;
9106;SDS011;4589;48.690;8.952;2023-11-19T13:38:14;1.10;;;1.00;;
9106;SDS011;4589;48.690;8.952;2023-11-19T13:40:39;5.00;;;1.63;;
9106;SDS011;4589;48.690;8.952;2023-11-19T13:43:05;2.80;;;1.10;;
9106;SDS011;4589;48.690;8.952;2023-11-19T13:45:31;1.97;;;0.90;;
9106;SDS011;4589;48.690;8.952;2023-11-19T13:47:57;1.83;;;1.00;;
9106;SDS011;4589;48.690;8.952;2023-11-19T13:50:23;1.23;;;1.07;;
9106;SDS011;4589;48.690;8.952;2023-11-19T13:52:49;3.63;;;1.63;;
9106;SDS011;4589;48.690;8.952;2023-11-19T13:55:15;2.53;;;1.40;;
9106;SDS011;4589;48.690;8.952;2023-11-19T13:57:41;7.53;;;1.00;;
9106;SDS011;4589;48.690;8.952;2023-11-19T14:00:08;1.93;;;1.30;;
9106;SDS011;4589;48.690;8.952;2023-11-19T14:02:38;1.20;;;1.00;;
9106;SDS011;4589;48.690;8.952;2023-11-19T14:05:05;1.67;;;1.10;;
9106;SDS011;4589;48.690;8.952;2023-11-19T14:07:31;1.10;;;0.90;;
9106;SDS011;4589;48.690;8.952;2023-11-19T14:09:57;2.70;;;1.20;;
9106;SDS011;4589;48.690;8.952;2023-11-19T14:12:22;2.43;;;1.30;;
9106;SDS011;4589;48.690;8.952;2023-11-19T14:14:48;2.70;;;1.00;;
9106;SDS011;4589;48.690;8.952;2023-11-19T14:17:14;3.30;;;1.30;;
9106;SDS011;4589;48.690;8.952;2023-11-19T14:19:41;2.70;;;0.97;;
9106;SDS011;4589;48.690;8.952;2023-11-19T14:22:07;1.20;;;1.10;;
9106;SDS011;4589;48.690;8.952;2023-11-19T14:24:33;1.20;;;1.00;;
9106;SDS011;4589;48.690;8.952;2023-11-19T14:26:59;1.80;;;1.20;;
9106;SDS011;4589;48.690;8.952;2023-11-19T14:29:25;1.20;;;1.10;;
9106;SDS011;4589;48.690;8.952;2023-11-19T14:31:53;2.17;;;1.30;;
9106;SDS011;4589;48.690;8.952;2023-11-19T14:34:20;2.90;;;1.10;;
9106;SDS011;4589;48.690;8.952;2023-11-19T14:36:45;2.30;;;1.17;;
9106;SDS011;4589;48.690;8.952;2023-11-19T14:39:12;1.83;;;1.40;;
9106;SDS011;4589;48.690;8.952;2023-11-19T14:41:38;1.50;;;1.10;;
9106;SDS011;4589;48.690;8.952;2023-11-19T14:44:04;3.60;;;1.20;;
9106;SDS011;4589;48.690;8.952;2023-11-19T14:46:30;2.50;;;1.00;;
9106;SDS011;4589;48.690;8.952;2023-11-19T14:48:56;1.37;;;1.20;;
9106;SDS011;4589;48.690;8.952;2023-11-19T14:51:22;1.30;;;1.13;;
9106;SDS011;4589;48.690;8.952;2023-11-19T14:53:47;1.83;;;1.00;;
9106;SDS011;4589;48.690;8.952;2023-11-19T14:56:13;1.93;;;1.17;;
9106;SDS011;4589;48.690;8.952;2023-11-19T14:58:39;2.50;;;1.30;;
9106;SDS011;4589;48.690;8.952;2023-11-19T15:01:05;1.60;;;1.43;;
9106;SDS011;4589;48.690;8.952;2023-11-19T15:03:31;2.20;;;1.77;;
9106;SDS011;4589;48.690;8.952;2023-11-19T15:05:57;1.50;;;1.40;;
9106;SDS011;4589;48.690;8.952;2023-11-19T15:08:23;1.23;;;1.13;;
9106;SDS011;4589;48.690;8.952;2023-11-19T15:10:49;2.60;;;1.47;;
9106;SDS011;4589;48.690;8.952;2023-11-19T15:13:15;1.40;;;1.30;;
9106;SDS011;4589;48.690;8.952;2023-11-19T15:15:40;1.10;;;1.00;;
9106;SDS011;4589;48.690;8.952;2023-11-19T15:18:07;3.63;;;1.40;;
9106;SDS011;4589;48.690;8.952;2023-11-19T15:20:34;1.20;;;1.00;;
9106;SDS011;4589;48.690;8.952;2023-11-19T15:23:01;2.10;;;1.20;;
9106;SDS011;4589;48.690;8.952;2023-11-19T15:25:26;3.77;;;2.30;;
9106;SDS011;4589;48.690;8.952;2023-11-19T15:27:52;2.53;;;1.87;;
9106;SDS011;4589;48.690;8.952;2023-11-19T15:30:17;3.40;;;1.90;;
9106;SDS011;4589;48.690;8.952;2023-11-19T15:32:43;2.77;;;1.70;;
9106;SDS011;4589;48.690;8.952;2023-11-19T15:35:09;3.80;;;1.90;;
9106;SDS011;4589;48.690;8.952;2023-11-19T15:37:36;2.10;;;1.90;;
9106;SDS011;4589;48.690;8.952;2023-11-19T15:40:05;2.67;;;2.40;;